createdAt,value
2018-05-26T00:01:50.789Z,11.40
2018-05-26T00:04:18.231Z,11.50
2018-05-26T00:06:46.436Z,11.03
2018-05-26T00:09:14.270Z,12.70
2018-05-26T00:11:42.486Z,12.27
2018-05-26T00:14:10.326Z,11.87
2018-05-26T00:16:38.528Z,11.80
2018-05-26T00:19:07.477Z,12.17
2018-05-26T00:21:34.929Z,12.67
2018-05-26T00:24:03.129Z,12.60
2018-05-26T00:26:30.579Z,13.70
2018-05-26T00:28:58.428Z,12.40
2018-05-26T00:31:26.641Z,11.70
2018-05-26T00:33:54.473Z,11.80
2018-05-26T00:36:22.323Z,12.03
2018-05-26T00:38:50.526Z,11.90
2018-05-26T00:41:18.379Z,11.47
2018-05-26T00:43:46.585Z,11.07
2018-05-26T00:46:14.029Z,12.70
2018-05-26T00:48:41.467Z,12.80
2018-05-26T00:51:09.697Z,13.17
2018-05-26T00:53:37.137Z,12.00
2018-05-26T00:56:04.577Z,12.40
2018-05-26T00:58:32.018Z,11.37
2018-05-26T01:00:59.475Z,13.10
2018-05-26T01:03:26.910Z,12.70
2018-05-26T01:05:55.130Z,12.37
2018-05-26T01:08:22.569Z,11.60
2018-05-26T01:10:50.021Z,12.27
2018-05-26T01:13:18.228Z,10.63
2018-05-26T01:15:45.680Z,11.07
2018-05-26T01:18:13.895Z,11.80
2018-05-26T01:20:41.353Z,13.67
2018-05-26T01:23:08.808Z,11.97
2018-05-26T01:25:37.600Z,12.37
2018-05-26T01:28:05.810Z,10.97
2018-05-26T01:30:33.263Z,12.30
2018-05-26T01:33:00.702Z,11.53
2018-05-26T01:35:28.145Z,12.10
2018-05-26T01:37:55.598Z,12.90
2018-05-26T01:40:23.042Z,12.33
2018-05-26T01:42:50.483Z,12.17
2018-05-26T01:45:18.684Z,10.60
2018-05-26T01:47:46.125Z,11.07
2018-05-26T01:50:13.558Z,11.80
2018-05-26T01:52:41.767Z,11.90
2018-05-26T01:55:09.201Z,12.27
2018-05-26T01:57:36.645Z,11.57
2018-05-26T02:00:04.077Z,13.03
2018-05-26T02:02:31.529Z,11.93
2018-05-26T02:04:58.961Z,11.93
2018-05-26T02:07:26.418Z,12.40
2018-05-26T02:09:53.853Z,14.37
2018-05-26T02:12:21.307Z,14.03
2018-05-26T02:14:48.764Z,13.03
2018-05-26T02:17:16.194Z,13.37
2018-05-26T02:19:43.646Z,13.80
2018-05-26T02:22:11.852Z,14.40
2018-05-26T02:24:39.303Z,13.83
2018-05-26T02:27:06.757Z,13.30
2018-05-26T02:29:34.955Z,12.97
2018-05-26T02:32:02.434Z,14.67
2018-05-26T02:34:30.622Z,13.23
2018-05-26T02:36:58.074Z,14.63
2018-05-26T02:39:25.509Z,13.60
2018-05-26T02:41:52.940Z,13.27
2018-05-26T02:44:20.375Z,14.03
2018-05-26T02:46:47.841Z,13.33
2018-05-26T02:49:16.040Z,14.33
2018-05-26T02:51:43.480Z,14.20
2018-05-26T02:54:11.683Z,13.60
2018-05-26T02:56:39.885Z,13.70
2018-05-26T02:59:07.317Z,14.60
2018-05-26T03:01:35.548Z,13.70
2018-05-26T03:04:02.497Z,13.83
2018-05-26T03:06:35.719Z,13.83
2018-05-26T03:09:08.813Z,14.03
2018-05-26T03:11:42.691Z,13.87
2018-05-26T03:14:16.520Z,14.03
2018-05-26T03:16:51.180Z,13.23
2018-05-26T03:19:19.398Z,14.87
2018-05-26T03:21:46.836Z,15.63
2018-05-26T03:24:14.278Z,13.27
2018-05-26T03:26:41.731Z,16.07
2018-05-26T03:29:09.936Z,14.20
2018-05-26T03:31:37.779Z,15.13
2018-05-26T03:34:05.605Z,14.80
2018-05-26T03:36:33.048Z,16.40
2018-05-26T03:39:01.248Z,15.90
2018-05-26T03:41:28.687Z,15.17
2018-05-26T03:43:56.892Z,15.60
2018-05-26T03:46:24.343Z,12.93
2018-05-26T03:48:52.544Z,16.23
2018-05-26T03:51:19.989Z,15.07
2018-05-26T03:53:48.197Z,16.00
2018-05-26T03:56:27.383Z,16.63
2018-05-26T03:59:06.645Z,15.83
2018-05-26T04:01:34.488Z,15.70
2018-05-26T04:04:01.922Z,14.90
2018-05-26T04:06:30.147Z,14.70
2018-05-26T04:08:57.972Z,15.70
2018-05-26T04:11:25.470Z,14.93
2018-05-26T04:13:52.856Z,15.77
2018-05-26T04:16:21.089Z,16.23
2018-05-26T04:18:49.295Z,14.20
2018-05-26T04:21:16.752Z,15.80
2018-05-26T04:23:44.958Z,13.50
2018-05-26T04:26:12.397Z,15.07
2018-05-26T04:28:40.615Z,14.40
2018-05-26T04:31:08.043Z,14.83
2018-05-26T04:33:36.269Z,15.13
2018-05-26T04:36:03.703Z,15.70
2018-05-26T04:38:31.901Z,16.33
2018-05-26T04:41:00.108Z,16.10
2018-05-26T04:43:27.545Z,14.87
2018-05-26T04:45:57.077Z,17.33
2018-05-26T04:48:25.259Z,15.73
2018-05-26T04:50:53.476Z,17.40
2018-05-26T04:53:20.916Z,16.20
2018-05-26T04:55:48.371Z,14.93
2018-05-26T04:58:16.576Z,16.60
2018-05-26T05:00:44.020Z,15.00
2018-05-26T05:03:12.236Z,16.80
2018-05-26T05:05:40.472Z,16.37
2018-05-26T05:08:08.317Z,16.90
2018-05-26T05:10:36.528Z,16.57
2018-05-26T05:13:03.967Z,16.00
2018-05-26T05:15:32.556Z,16.60
2018-05-26T05:18:00.774Z,15.67
2018-05-26T05:20:28.216Z,14.80
2018-05-26T05:22:55.664Z,15.90
2018-05-26T05:25:23.095Z,14.67
2018-05-26T05:27:50.537Z,15.47
2018-05-26T05:30:17.980Z,15.37
2018-05-26T05:32:45.420Z,14.70
2018-05-26T05:35:13.624Z,14.30
2018-05-26T05:37:41.065Z,14.53
2018-05-26T05:40:09.265Z,14.60
2018-05-26T05:42:37.108Z,13.33
2018-05-26T05:45:04.945Z,14.10
2018-05-26T05:47:32.396Z,12.60
2018-05-26T05:49:59.833Z,12.70
2018-05-26T05:52:28.048Z,12.60
2018-05-26T05:54:55.479Z,13.30
2018-05-26T05:57:24.059Z,10.93
2018-05-26T05:59:51.488Z,11.90
2018-05-26T06:02:19.693Z,10.23
2018-05-26T06:04:47.128Z,11.03
2018-05-26T06:07:14.964Z,10.63
2018-05-26T06:09:42.402Z,9.53
2018-05-26T06:12:10.612Z,10.13
2018-05-26T06:14:38.068Z,10.70
2018-05-26T06:17:05.514Z,10.87
2018-05-26T06:19:33.704Z,9.93
2018-05-26T06:22:01.138Z,8.87
2018-05-26T06:24:28.579Z,10.60
2018-05-26T06:26:56.798Z,8.47
2018-05-26T06:29:24.226Z,9.30
2018-05-26T06:31:51.765Z,8.80
2018-05-26T06:34:19.100Z,8.13
2018-05-26T06:36:46.541Z,7.53
2018-05-26T06:39:14.374Z,8.37
2018-05-26T06:41:41.813Z,7.90
2018-05-26T06:44:09.250Z,8.20
2018-05-26T06:46:37.464Z,8.17
2018-05-26T06:49:04.904Z,7.30
2018-05-26T06:51:33.836Z,8.50
2018-05-26T06:54:01.673Z,8.13
2018-05-26T06:56:29.118Z,7.33
2018-05-26T06:58:56.544Z,8.27
2018-05-26T07:01:23.976Z,7.97
2018-05-26T07:03:51.408Z,8.00
2018-05-26T07:06:18.840Z,7.13
2018-05-26T07:08:46.271Z,7.37
2018-05-26T07:11:13.712Z,7.00
2018-05-26T07:13:41.912Z,6.80
2018-05-26T07:16:09.352Z,7.60
2018-05-26T07:18:36.785Z,7.40
2018-05-26T07:21:04.976Z,8.10
2018-05-26T07:23:32.812Z,7.30
2018-05-26T07:26:01.014Z,6.93
2018-05-26T07:28:28.840Z,7.27
2018-05-26T07:30:57.041Z,7.97
2018-05-26T07:33:24.872Z,7.63
2018-05-26T07:35:52.328Z,6.50
2018-05-26T07:38:20.535Z,6.93
2018-05-26T07:40:47.992Z,7.80
2018-05-26T07:43:16.199Z,6.43
2018-05-26T07:45:43.624Z,6.57
2018-05-26T07:48:11.068Z,6.87
2018-05-26T07:50:38.515Z,7.10
2018-05-26T07:53:05.992Z,6.90
2018-05-26T07:55:34.139Z,6.53
2018-05-26T07:58:01.581Z,8.17
2018-05-26T08:00:29.025Z,6.63
2018-05-26T08:02:57.224Z,6.20
2018-05-26T08:05:25.072Z,5.80
2018-05-26T08:07:53.251Z,5.63
2018-05-26T08:10:21.460Z,5.90
2018-05-26T08:12:50.230Z,5.47
2018-05-26T08:15:17.675Z,5.33
2018-05-26T08:17:45.122Z,5.67
2018-05-26T08:20:14.065Z,5.60
2018-05-26T08:22:41.514Z,6.13
2018-05-26T08:25:10.088Z,5.37
2018-05-26T08:27:37.520Z,5.57
2018-05-26T08:30:04.952Z,6.20
2018-05-26T08:32:32.383Z,6.03
2018-05-26T08:34:59.813Z,5.20
2018-05-26T08:37:27.249Z,5.40
2018-05-26T08:39:55.067Z,5.67
2018-05-26T08:42:23.280Z,5.27
2018-05-26T08:44:51.484Z,5.00
2018-05-26T08:47:19.684Z,4.80
2018-05-26T08:49:47.125Z,4.87
2018-05-26T08:52:15.328Z,4.73
2018-05-26T08:54:42.758Z,5.30
2018-05-26T08:57:10.187Z,5.20
2018-05-26T08:59:37.659Z,5.10
2018-05-26T09:02:05.091Z,5.50
2018-05-26T09:04:33.294Z,4.40
2018-05-26T09:07:00.748Z,5.37
2018-05-26T09:09:28.943Z,4.17
2018-05-26T09:11:57.152Z,4.40
2018-05-26T09:14:24.591Z,4.60
2018-05-26T09:16:52.798Z,4.73
2018-05-26T09:19:20.987Z,4.70
2018-05-26T09:21:49.248Z,4.77
2018-05-26T09:24:17.068Z,4.87
2018-05-26T09:26:44.913Z,4.63
2018-05-26T09:29:12.359Z,4.83
2018-05-26T09:31:40.551Z,4.37
2018-05-26T09:34:08.750Z,4.50
2018-05-26T09:36:36.184Z,4.20
2018-05-26T09:39:03.641Z,4.03
2018-05-26T09:41:31.094Z,4.20
2018-05-26T09:43:58.919Z,3.10
2018-05-26T09:46:27.124Z,4.30
2018-05-26T09:48:54.552Z,3.90
2018-05-26T09:51:21.993Z,3.70
2018-05-26T09:53:49.420Z,4.23
2018-05-26T09:56:16.855Z,3.93
2018-05-26T09:58:45.052Z,3.70
2018-05-26T10:01:13.248Z,3.97
2018-05-26T10:03:40.683Z,3.83
2018-05-26T10:06:08.525Z,3.40
2018-05-26T10:08:35.961Z,3.67
2018-05-26T10:11:03.391Z,3.90
2018-05-26T10:13:30.882Z,3.93
2018-05-26T10:15:58.268Z,3.50
2018-05-26T10:18:25.691Z,3.53
2018-05-26T10:20:53.129Z,3.30
2018-05-26T10:23:20.585Z,3.63
2018-05-26T10:25:48.017Z,3.83
2018-05-26T10:28:16.231Z,3.70
2018-05-26T10:30:43.657Z,3.50
2018-05-26T10:33:11.089Z,3.70
2018-05-26T10:35:38.564Z,3.80
2018-05-26T10:38:06.040Z,3.33
2018-05-26T10:40:34.169Z,3.00
2018-05-26T10:43:01.601Z,3.57
2018-05-26T10:45:38.799Z,3.80
2018-05-26T10:48:06.242Z,3.53
2018-05-26T10:50:33.676Z,3.47
2018-05-26T10:53:01.131Z,3.00
2018-05-26T10:55:29.331Z,3.20
2018-05-26T10:57:56.781Z,3.83
2018-05-26T11:00:24.976Z,3.37
2018-05-26T11:02:52.804Z,3.27
2018-05-26T11:05:20.262Z,3.20
2018-05-26T11:07:47.688Z,3.43
2018-05-26T11:10:15.905Z,2.77
2018-05-26T11:12:43.349Z,2.57
2018-05-26T11:15:10.778Z,2.97
2018-05-26T11:17:38.611Z,2.80
2018-05-26T11:20:06.041Z,3.03
2018-05-26T11:22:34.236Z,3.20
2018-05-26T11:25:01.669Z,3.40
2018-05-26T11:27:29.513Z,2.50
2018-05-26T11:29:56.944Z,3.53
2018-05-26T11:32:25.163Z,2.67
2018-05-26T11:34:52.605Z,2.90
2018-05-26T11:37:20.445Z,3.37
2018-05-26T11:39:47.860Z,3.47
2018-05-26T11:42:15.692Z,3.00
2018-05-26T11:44:43.675Z,3.47
2018-05-26T11:47:11.881Z,2.80
2018-05-26T11:49:40.109Z,2.33
2018-05-26T11:52:07.540Z,2.40
2018-05-26T11:54:34.964Z,2.30
2018-05-26T11:57:03.949Z,2.33
2018-05-26T11:59:32.529Z,2.70
2018-05-26T12:02:00.425Z,3.50
2018-05-26T12:04:27.950Z,3.10
2018-05-26T12:06:55.391Z,3.00
2018-05-26T12:09:23.588Z,2.90
2018-05-26T12:11:51.784Z,2.43
2018-05-26T12:14:20.008Z,2.77
2018-05-26T12:16:47.563Z,2.90
2018-05-26T12:19:15.376Z,3.20
2018-05-26T12:21:42.812Z,2.17
2018-05-26T12:24:10.245Z,2.80
2018-05-26T12:26:39.184Z,2.27
2018-05-26T12:29:06.619Z,2.90
2018-05-26T12:31:35.411Z,2.60
2018-05-26T12:34:04.208Z,2.77
2018-05-26T12:36:33.005Z,2.80
2018-05-26T12:39:00.440Z,2.77
2018-05-26T12:41:27.876Z,2.30
2018-05-26T12:43:56.093Z,2.90
2018-05-26T12:46:23.935Z,3.10
2018-05-26T12:48:51.370Z,2.70
2018-05-26T12:51:20.151Z,2.50
2018-05-26T12:53:49.036Z,2.97
2018-05-26T12:56:16.477Z,2.47
2018-05-26T12:58:44.313Z,2.70
2018-05-26T13:01:12.534Z,2.10
2018-05-26T13:03:39.972Z,2.47
2018-05-26T13:06:08.248Z,2.53
2018-05-26T13:08:35.657Z,2.63
2018-05-26T13:11:03.094Z,2.27
2018-05-26T13:13:31.287Z,2.17
2018-05-26T13:15:59.497Z,2.47
2018-05-26T13:18:27.370Z,2.13
2018-05-26T13:20:55.192Z,2.30
2018-05-26T13:23:24.062Z,2.60
2018-05-26T13:25:52.252Z,2.10
2018-05-26T13:28:19.687Z,2.78
2018-05-26T13:30:47.121Z,2.10
2018-05-26T13:33:14.557Z,2.62
2018-05-26T13:35:42.000Z,2.60
2018-05-26T13:38:10.783Z,2.80
2018-05-26T13:40:38.621Z,3.00
2018-05-26T13:43:06.057Z,2.57
2018-05-26T13:45:33.501Z,2.70
2018-05-26T13:48:00.933Z,3.27
2018-05-26T13:50:29.520Z,2.50
2018-05-26T13:52:56.950Z,2.60
2018-05-26T13:55:24.411Z,3.00
2018-05-26T13:57:52.586Z,3.50
2018-05-26T14:00:20.021Z,3.20
2018-05-26T14:02:47.455Z,2.83
2018-05-26T14:05:15.668Z,2.20
2018-05-26T14:07:43.105Z,2.63
2018-05-26T14:10:11.296Z,3.30
2018-05-26T14:12:38.732Z,3.07
2018-05-26T14:15:06.160Z,2.90
2018-05-26T14:17:33.615Z,3.53
2018-05-26T14:20:01.060Z,3.23
2018-05-26T14:22:28.908Z,3.43
2018-05-26T14:24:56.355Z,3.83
2018-05-26T14:27:24.568Z,2.90
2018-05-26T14:29:52.400Z,2.80
2018-05-26T14:32:20.961Z,2.67
2018-05-26T14:34:48.405Z,2.73
2018-05-26T14:37:15.839Z,2.73
2018-05-26T14:39:43.264Z,2.92
2018-05-26T14:42:10.754Z,2.43
2018-05-26T14:44:38.147Z,2.22
2018-05-26T14:47:05.983Z,2.45
2018-05-26T14:49:34.188Z,3.10
2018-05-26T14:52:01.636Z,2.43
2018-05-26T14:54:29.071Z,2.97
2018-05-26T14:56:56.500Z,2.73
2018-05-26T14:59:23.927Z,2.80
2018-05-26T15:01:51.381Z,2.60
2018-05-26T15:04:18.810Z,2.10
2018-05-26T15:06:47.749Z,3.03
2018-05-26T15:09:15.183Z,3.03
2018-05-26T15:11:43.385Z,2.60
2018-05-26T15:14:10.868Z,3.10
2018-05-26T15:16:38.296Z,3.20
2018-05-26T15:19:06.860Z,2.90
2018-05-26T15:21:34.398Z,2.93
2018-05-26T15:24:01.850Z,3.60
2018-05-26T15:26:29.828Z,3.00
2018-05-26T15:28:58.044Z,3.10
2018-05-26T15:31:25.484Z,2.80
2018-05-26T15:33:52.919Z,2.63
2018-05-26T15:36:20.366Z,2.53
2018-05-26T15:38:47.788Z,3.10
2018-05-26T15:41:15.244Z,2.70
2018-05-26T15:43:43.461Z,3.40
2018-05-26T15:46:11.669Z,3.30
2018-05-26T15:48:39.096Z,2.40
2018-05-26T15:51:06.547Z,2.57
2018-05-26T15:53:34.735Z,2.43
2018-05-26T15:56:02.586Z,2.80
2018-05-26T15:58:30.044Z,2.90
2018-05-26T16:00:58.623Z,2.70
2018-05-26T16:03:26.077Z,3.07
2018-05-26T16:05:54.275Z,2.60
2018-05-26T16:08:22.844Z,2.90
2018-05-26T16:10:50.285Z,3.47
2018-05-26T16:13:18.476Z,3.10
2018-05-26T16:15:46.675Z,3.30
2018-05-26T16:18:14.107Z,3.30
2018-05-26T16:20:41.573Z,3.67
2018-05-26T16:23:08.978Z,3.03
2018-05-26T16:25:36.828Z,3.00
2018-05-26T16:28:05.035Z,3.17
2018-05-26T16:30:33.237Z,3.00
2018-05-26T16:33:00.682Z,3.00
2018-05-26T16:35:28.886Z,2.80
2018-05-26T16:37:56.721Z,2.70
2018-05-26T16:40:24.157Z,2.70
2018-05-26T16:42:51.580Z,3.13
2018-05-26T16:45:19.056Z,3.27
2018-05-26T16:47:46.460Z,3.70
2018-05-26T16:50:14.340Z,3.17
2018-05-26T16:52:41.775Z,3.37
2018-05-26T16:55:09.201Z,2.87
2018-05-26T16:57:36.645Z,3.20
2018-05-26T17:00:04.069Z,3.40
2018-05-26T17:02:32.276Z,3.20
2018-05-26T17:04:59.711Z,3.10
2018-05-26T17:07:28.660Z,3.90
2018-05-26T17:09:56.097Z,3.73
2018-05-26T17:12:23.557Z,3.70
2018-05-26T17:14:51.015Z,3.50
2018-05-26T17:17:19.263Z,3.50
2018-05-26T17:19:47.470Z,3.50
2018-05-26T17:22:14.979Z,3.47
2018-05-26T17:24:42.415Z,4.40
2018-05-26T17:27:09.841Z,3.63
2018-05-26T17:29:37.351Z,3.30
2018-05-26T17:32:04.775Z,4.00
2018-05-26T17:34:32.625Z,3.93
2018-05-26T17:37:00.828Z,3.60
2018-05-26T17:39:28.266Z,4.00
2018-05-26T17:41:56.469Z,3.83
2018-05-26T17:44:23.901Z,3.47
2018-05-26T17:46:52.100Z,3.70
2018-05-26T17:49:20.289Z,4.00
2018-05-26T17:51:48.503Z,4.30
2018-05-26T17:54:15.948Z,4.03
2018-05-26T17:56:43.772Z,3.20
2018-05-26T17:59:12.812Z,3.90
2018-05-26T18:01:41.017Z,4.13
2018-05-26T18:04:08.457Z,3.90
2018-05-26T18:06:37.036Z,3.50
2018-05-26T18:09:05.813Z,4.40
2018-05-26T18:11:33.260Z,4.10
2018-05-26T18:14:01.448Z,4.03
2018-05-26T18:16:28.900Z,4.07
2018-05-26T18:18:56.723Z,5.20
2018-05-26T18:21:24.180Z,5.77
2018-05-26T19:48:48.748Z,5.10
2018-05-26T19:51:17.344Z,5.60
2018-05-26T19:53:44.775Z,5.50
2018-05-26T19:56:12.237Z,5.70
2018-05-26T19:58:39.662Z,5.13
2018-05-26T20:01:07.869Z,5.23
2018-05-26T20:03:35.313Z,5.70
2018-05-26T20:06:03.550Z,5.50
2018-05-26T20:08:30.964Z,5.90
2018-05-26T20:10:59.908Z,6.00
2018-05-26T20:13:28.485Z,6.30
2018-05-26T20:15:55.920Z,5.83
2018-05-26T20:18:24.117Z,4.80
2018-05-26T20:20:52.321Z,5.20
2018-05-26T20:23:20.519Z,6.10
2018-05-26T20:25:47.953Z,6.80
2018-05-26T20:28:16.145Z,6.23
2018-05-26T20:30:44.339Z,6.00
2018-05-26T20:33:11.780Z,6.27
2018-05-26T20:35:39.229Z,6.00
2018-05-26T20:38:06.661Z,6.27
2018-05-26T20:40:34.116Z,8.30
2018-05-26T20:43:02.297Z,7.07
2018-05-26T20:45:29.736Z,6.37
2018-05-26T20:47:57.171Z,6.53
2018-05-26T20:50:24.608Z,6.60
2018-05-26T20:52:52.052Z,6.50
2018-05-26T20:55:20.624Z,7.00
2018-05-26T20:57:48.453Z,6.70
2018-05-26T21:00:15.889Z,6.83
2018-05-26T21:02:44.096Z,6.30
2018-05-26T21:05:11.520Z,6.60
2018-05-26T21:07:38.959Z,7.10
2018-05-26T21:10:06.418Z,7.87
2018-05-26T21:12:35.000Z,6.63
2018-05-26T21:15:02.433Z,6.67
2018-05-26T21:17:30.338Z,6.57
2018-05-26T21:19:58.515Z,7.10
2018-05-26T21:22:25.951Z,7.00
2018-05-26T21:24:54.160Z,7.53
2018-05-26T21:27:21.604Z,7.47
2018-05-26T21:29:49.044Z,8.00
2018-05-26T21:32:17.618Z,7.83
2018-05-26T21:34:45.074Z,7.73
2018-05-26T21:37:12.515Z,7.77
2018-05-26T21:39:40.703Z,8.03
2018-05-26T21:42:08.911Z,7.60
2018-05-26T21:44:36.378Z,7.60
2018-05-26T21:47:04.565Z,9.20
2018-05-26T21:49:32.849Z,8.60
2018-05-26T21:52:00.288Z,8.77
2018-05-26T21:54:28.488Z,6.90
2018-05-26T21:56:57.268Z,7.97
2018-05-26T21:59:25.097Z,7.30
2018-05-26T22:01:52.931Z,8.00
2018-05-26T22:04:21.712Z,7.20
2018-05-26T22:06:49.548Z,6.57
2018-05-26T22:09:16.986Z,7.00
2018-05-26T22:11:45.177Z,6.63
2018-05-26T22:14:12.619Z,6.90
2018-05-26T22:16:40.057Z,8.07
2018-05-26T22:19:07.472Z,6.97
2018-05-26T22:21:34.905Z,7.93
2018-05-26T22:24:03.853Z,7.63
2018-05-26T22:26:31.292Z,7.33
2018-05-26T22:29:00.223Z,6.97
2018-05-26T22:31:28.432Z,6.93
2018-05-26T22:33:55.852Z,7.07
2018-05-26T22:36:24.793Z,6.60
2018-05-26T22:38:52.215Z,7.63
2018-05-26T22:41:21.156Z,7.17
2018-05-26T22:43:49.359Z,6.53
2018-05-26T22:46:16.820Z,6.10
2018-05-26T22:48:44.640Z,7.07
2018-05-26T22:51:12.079Z,7.23
2018-05-26T22:53:39.512Z,5.70
2018-05-26T22:56:06.962Z,6.90
2018-05-26T22:58:35.900Z,7.37
2018-05-26T23:01:03.324Z,7.23
2018-05-26T23:03:31.516Z,6.83
2018-05-26T23:06:00.448Z,7.17
2018-05-26T23:08:27.879Z,6.63
2018-05-26T23:10:56.076Z,7.83
2018-05-26T23:13:25.019Z,6.80
2018-05-26T23:15:52.443Z,6.97
2018-05-26T23:18:19.878Z,7.17
2018-05-26T23:20:47.317Z,7.23
2018-05-26T23:23:16.104Z,7.00
2018-05-26T23:25:43.927Z,7.40
2018-05-26T23:28:11.367Z,8.37
2018-05-26T23:30:38.804Z,7.93
2018-05-26T23:33:06.628Z,8.30
2018-05-26T23:35:34.069Z,9.17
2018-05-26T23:38:01.516Z,9.10
2018-05-26T23:40:28.959Z,7.73
2018-05-26T23:42:57.521Z,7.83
2018-05-26T23:45:24.971Z,8.10
2018-05-26T23:47:52.397Z,8.90
2018-05-26T23:50:19.840Z,9.93
2018-05-26T23:52:47.681Z,7.80
2018-05-26T23:55:15.113Z,8.77
2018-05-26T23:57:43.903Z,8.90
